Main page
METAR-TAF:

METAR-TAF

Airports :

Bartolomeu Lysandro Airport

Campos dos Goytacazes, Rio de Janeiro, Brazil

latitude: 21-45S, longitude: 041-20W, elevation: 11 m

Current weather observation

The report was made 15 minutes ago, at 23:00 UTC
Wind 6 kt from the East
Temperature 24°C
Humidity 94%
Pressure 1015 hPa
Visibility 10 km or more
Few clouds at a height of 4000 ft
Broken clouds at a height of 9000 ft
light rain

METAR: SBCP 202300Z 08006KT 9999 -RA FEW040 BKN090 24/23 Q1015

Time: 20:15 (23:15 UTC)

Forecast

The report was made 8 hours and 15 minutes ago, at 15:00 UTC
Forecast valid from 20 at 18 UTC to 21 at 06 UTC
Wind 15 kt from the East/Northeast
Visibility 10 km or more
Scattered clouds at a height of 2000 ft

TAF: SBCP 201500Z 2018/2106 06015KT 9999 SCT020 TX29/2018Z TN24/2023Z RMK PHD

Weather observations and forecasts of more than 4000 airports (METAR and TAF reports).

The available stations are represented by yellow and red dots on the map.

Hover mouse over dot to see the name of the station.

Then click to see weather observations and forecasts.

To change the map : click on the green buttons with a black cross to zoom in, on the green button with a dash to zoom out, or on the green arrows for adjacent maps.


METAR-TAF: